createdAt,value
2017-11-24T00:01:37.507Z,3.50
2017-11-24T00:07:06.413Z,6.13
2017-11-24T00:12:34.831Z,1.87
2017-11-24T00:18:03.401Z,6.43
2017-11-24T00:23:32.323Z,2.90
2017-11-24T00:29:01.247Z,3.30
2017-11-24T00:34:29.387Z,2.70
2017-11-24T00:39:58.306Z,4.20
2017-11-24T00:45:26.479Z,3.90
2017-11-24T00:50:54.645Z,2.87
2017-11-24T00:56:23.496Z,4.13
2017-11-24T01:01:52.648Z,4.37
2017-11-24T01:07:21.561Z,6.77
2017-11-24T01:12:50.416Z,6.80
2017-11-24T01:18:19.538Z,3.60
2017-11-24T01:23:47.674Z,3.77
2017-11-24T01:29:16.590Z,5.17
2017-11-24T01:35:01.793Z,5.20
2017-11-24T01:40:29.935Z,3.30
2017-11-24T01:45:58.097Z,3.13
2017-11-24T01:51:26.258Z,7.50
2017-11-24T01:56:54.403Z,8.33
2017-11-24T02:02:22.918Z,2.63
2017-11-24T02:07:52.049Z,4.93
2017-11-24T02:13:20.187Z,5.20
2017-11-24T02:18:48.342Z,3.40
2017-11-24T02:24:16.504Z,5.90
2017-11-24T02:29:44.713Z,2.20
2017-11-24T02:35:12.847Z,8.73
2017-11-24T02:40:41.951Z,9.23
2017-11-24T02:46:10.344Z,3.57
2017-11-24T02:51:38.494Z,2.40
2017-11-24T02:57:06.652Z,2.67
2017-11-24T03:02:34.819Z,4.27
2017-11-24T03:08:03.717Z,3.30
2017-11-24T03:13:31.877Z,2.87
2017-11-24T03:19:00.801Z,4.20
2017-11-24T03:24:29.728Z,3.07
2017-11-24T03:29:57.889Z,3.67
2017-11-24T03:35:26.031Z,2.20
2017-11-24T03:40:54.905Z,5.30
2017-11-24T03:46:23.047Z,2.60
2017-11-24T03:51:52.016Z,3.63
2017-11-24T03:57:20.949Z,2.33
2017-11-24T04:02:49.078Z,3.33
2017-11-24T04:08:17.336Z,5.33
2017-11-24T04:13:45.485Z,1.67
2017-11-24T04:19:14.401Z,5.70
2017-11-24T04:24:42.552Z,5.13
2017-11-24T04:30:10.677Z,6.60
2017-11-24T04:35:38.823Z,2.90
2017-11-24T04:41:06.970Z,3.13
2017-11-24T04:46:35.120Z,2.23
2017-11-24T04:52:07.935Z,3.60
2017-11-24T04:57:36.059Z,4.60
2017-11-24T05:03:04.983Z,5.77
2017-11-24T05:08:33.126Z,4.00
2017-11-24T05:14:02.029Z,3.63
2017-11-24T05:19:32.163Z,2.30
2017-11-24T05:25:00.342Z,6.93
2017-11-24T05:30:29.309Z,4.40
2017-11-24T05:35:58.437Z,2.77
2017-11-24T05:41:26.667Z,2.80
2017-11-24T05:46:54.787Z,5.10
2017-11-24T05:52:22.992Z,2.60
2017-11-24T05:57:54.697Z,2.30
2017-11-24T06:03:23.608Z,2.20
2017-11-24T06:08:51.741Z,4.33
2017-11-24T06:14:19.879Z,3.63
2017-11-24T06:19:48.029Z,4.20
2017-11-24T06:25:16.166Z,4.47
2017-11-24T06:30:44.326Z,3.33
2017-11-24T06:36:13.238Z,5.70
2017-11-24T06:41:41.795Z,4.03
2017-11-24T06:47:10.716Z,4.17
2017-11-24T06:52:38.856Z,3.63
2017-11-24T06:58:11.201Z,6.40
2017-11-24T07:03:39.360Z,9.17
2017-11-24T07:09:07.502Z,8.13
2017-11-24T07:14:36.412Z,3.00
2017-11-24T07:20:04.556Z,17.50
2017-11-24T07:25:33.448Z,5.13
2017-11-24T07:31:01.666Z,5.70
2017-11-24T07:36:29.844Z,6.30
2017-11-24T07:41:58.935Z,4.53
2017-11-24T07:47:27.104Z,12.80
2017-11-24T07:52:56.012Z,3.80
2017-11-24T07:58:24.158Z,4.47
2017-11-24T08:03:53.086Z,12.63
2017-11-24T08:09:21.244Z,6.20
2017-11-24T08:14:49.377Z,4.87
2017-11-24T08:20:17.535Z,3.80
2017-11-24T08:25:45.704Z,7.73
2017-11-24T08:31:13.859Z,6.43
2017-11-24T08:36:42.014Z,4.13
2017-11-24T08:42:10.914Z,5.27
2017-11-24T08:47:44.664Z,5.30
2017-11-24T08:53:12.805Z,3.43
2017-11-24T08:58:40.961Z,9.80
2017-11-24T09:04:09.089Z,4.40
2017-11-24T09:09:37.229Z,7.83
2017-11-24T09:15:05.369Z,5.60
2017-11-24T09:20:33.531Z,5.30
2017-11-24T09:26:02.455Z,6.13
2017-11-24T09:31:31.404Z,2.17
2017-11-24T09:36:59.573Z,3.17
2017-11-24T09:42:27.748Z,5.03
2017-11-24T09:47:55.915Z,2.70
2017-11-24T09:53:24.083Z,5.03
2017-11-24T09:58:53.005Z,5.30
2017-11-24T10:04:21.939Z,4.30
2017-11-24T10:09:50.079Z,4.23
2017-11-24T10:15:18.985Z,4.53
2017-11-24T10:20:52.781Z,2.83
2017-11-24T10:26:20.937Z,5.97
2017-11-24T10:31:49.085Z,8.63
2017-11-24T10:37:17.230Z,4.80
2017-11-24T10:42:45.381Z,7.10
2017-11-24T10:48:13.554Z,5.07
2017-11-24T10:53:42.475Z,2.70
2017-11-24T10:59:10.650Z,3.23
2017-11-24T11:04:38.795Z,4.33
2017-11-24T11:10:06.948Z,4.70
2017-11-24T11:15:35.884Z,3.53
2017-11-24T11:21:04.035Z,5.23
2017-11-24T11:26:32.206Z,7.70
2017-11-24T11:32:00.379Z,8.20
2017-11-24T11:37:28.536Z,11.57
2017-11-24T11:42:56.706Z,5.97
2017-11-24T11:48:24.859Z,3.57
2017-11-24T11:53:53.018Z,4.77
2017-11-24T11:59:21.159Z,3.53
2017-11-24T12:04:49.323Z,7.20
2017-11-24T12:10:17.452Z,7.40
2017-11-24T12:15:45.617Z,5.90
2017-11-24T12:21:14.534Z,8.00
2017-11-24T12:26:43.807Z,8.27
2017-11-24T12:32:11.954Z,6.43
2017-11-24T12:37:40.119Z,11.23
2017-11-24T12:43:08.260Z,4.93
2017-11-24T12:48:36.461Z,5.00
2017-11-24T12:54:05.382Z,7.57
2017-11-24T12:59:33.571Z,17.20
2017-11-24T13:05:01.730Z,4.57
2017-11-24T13:10:29.909Z,15.03
2017-11-24T13:15:58.114Z,8.70
2017-11-24T13:21:27.055Z,9.13
2017-11-24T13:26:55.215Z,8.87
2017-11-24T13:32:23.383Z,7.70
2017-11-24T13:37:51.534Z,3.83
2017-11-24T13:43:19.726Z,11.00
2017-11-24T13:48:47.902Z,5.27
2017-11-24T13:54:16.062Z,6.50
2017-11-24T13:59:44.210Z,4.27
2017-11-24T14:05:12.365Z,2.73
2017-11-24T14:10:40.523Z,6.33
2017-11-24T14:16:08.680Z,3.07
2017-11-24T14:21:36.833Z,3.43
2017-11-24T14:27:05.745Z,4.20
2017-11-24T14:32:33.894Z,9.47
2017-11-24T14:38:02.867Z,5.43
2017-11-24T14:43:31.017Z,7.43
2017-11-24T14:48:59.301Z,7.67
2017-11-24T14:54:27.441Z,5.50
2017-11-24T14:59:55.630Z,7.67
2017-11-24T15:05:23.796Z,11.40
2017-11-24T15:10:51.973Z,18.20
2017-11-24T15:16:20.199Z,9.07
2017-11-24T15:21:49.002Z,10.03
2017-11-24T15:27:17.157Z,7.57
2017-11-24T15:32:45.319Z,7.60
2017-11-24T15:38:13.493Z,5.00
2017-11-24T15:43:43.637Z,5.70
2017-11-24T15:49:11.809Z,9.17
2017-11-24T15:54:39.996Z,6.03
2017-11-24T16:00:08.147Z,6.33
2017-11-24T16:05:36.339Z,9.00
2017-11-24T16:11:04.491Z,14.83
2017-11-24T16:16:32.693Z,8.33
2017-11-24T16:22:00.897Z,8.20
2017-11-24T16:27:29.079Z,15.53
2017-11-24T16:32:57.277Z,11.93
2017-11-24T16:38:25.465Z,6.40
2017-11-24T16:43:53.654Z,8.00
2017-11-24T16:49:22.582Z,5.53
2017-11-24T16:54:50.784Z,8.60
2017-11-24T17:00:19.862Z,8.77
2017-11-24T17:05:48.796Z,6.17
2017-11-24T17:11:29.831Z,7.67
2017-11-24T17:16:57.973Z,8.50
2017-11-24T17:22:26.131Z,5.87
2017-11-24T17:27:54.347Z,6.37
2017-11-24T17:33:22.554Z,3.63
2017-11-24T17:38:50.733Z,8.83
2017-11-24T17:44:19.679Z,9.90
2017-11-24T17:49:47.833Z,7.90
2017-11-24T17:55:16.005Z,12.43
2017-11-24T18:00:44.930Z,9.87
2017-11-24T18:06:13.094Z,9.60
2017-11-24T18:11:41.232Z,12.07
2017-11-24T18:17:09.401Z,12.03
2017-11-24T18:22:37.576Z,10.73
2017-11-24T18:28:05.744Z,11.47
2017-11-24T18:33:34.694Z,15.43
2017-11-24T18:39:03.655Z,17.10
2017-11-24T18:44:31.829Z,30.50
2017-11-24T18:49:59.999Z,28.93
2017-11-24T18:55:28.152Z,18.00
2017-11-24T19:00:56.390Z,18.30
2017-11-24T19:06:24.559Z,28.83
2017-11-24T19:11:52.739Z,22.17
2017-11-24T19:17:20.917Z,18.47
2017-11-24T19:22:49.088Z,16.30
2017-11-24T19:28:18.058Z,19.70
2017-11-24T19:33:46.204Z,25.07
2017-11-24T19:39:14.351Z,15.20
2017-11-24T19:44:42.520Z,23.60
2017-11-24T19:50:10.689Z,22.73
2017-11-24T19:55:38.850Z,24.93
2017-11-24T20:01:06.984Z,20.43
2017-11-24T20:06:35.129Z,27.60
2017-11-24T20:12:03.342Z,22.10
2017-11-24T20:17:41.524Z,19.10
2017-11-24T20:23:09.725Z,12.67
2017-11-24T20:28:44.842Z,20.10
2017-11-24T20:34:13.819Z,12.83
2017-11-24T20:39:41.992Z,12.13
2017-11-24T20:45:10.129Z,12.70
2017-11-24T20:50:39.029Z,12.10
2017-11-24T20:56:07.151Z,9.40
2017-11-24T21:01:35.400Z,10.40
2017-11-24T21:07:04.305Z,9.10
2017-11-24T21:12:32.495Z,8.37
2017-11-24T21:18:00.648Z,9.63
2017-11-24T21:23:29.063Z,13.07
2017-11-24T21:28:57.235Z,13.80
2017-11-24T21:34:26.177Z,12.60
2017-11-24T21:39:54.332Z,9.27
2017-11-24T21:45:22.564Z,8.50
2017-11-24T21:50:51.655Z,9.90
2017-11-24T21:56:21.515Z,11.33
2017-11-24T22:01:50.430Z,13.13
2017-11-24T22:07:28.589Z,10.13
2017-11-24T22:12:56.744Z,12.60
2017-11-24T22:18:24.896Z,12.87
2017-11-24T22:23:58.414Z,11.90
2017-11-24T22:29:26.584Z,10.93
2017-11-24T22:34:54.857Z,11.75
2017-11-24T22:40:23.005Z,11.97
2017-11-24T22:45:51.145Z,9.30
2017-11-24T22:51:22.564Z,9.07
2017-11-24T22:56:50.690Z,6.93
2017-11-24T23:02:20.566Z,10.47
2017-11-24T23:07:48.693Z,9.90
2017-11-24T23:13:28.146Z,5.23
2017-11-24T23:18:57.095Z,7.77
2017-11-24T23:24:25.247Z,7.87
2017-11-24T23:29:55.396Z,8.33
2017-11-24T23:35:24.311Z,5.83
2017-11-24T23:40:59.657Z,11.63
2017-11-24T23:46:27.816Z,10.10
2017-11-24T23:51:55.977Z,16.70
2017-11-24T23:57:24.116Z,5.03
